sensor_id;sensor_type;location;lat;lon;timestamp;pressure;altitude;pressure_sealevel;temperature;humidity
72024;BME280;59889;50.700;5.440;2022-08-05T00:01:59;99892.82;;;31.51;28.82
72024;BME280;59889;50.700;5.440;2022-08-05T00:04:25;99888.57;;;31.73;28.83
72024;BME280;59889;50.700;5.440;2022-08-05T00:06:50;99893.07;;;31.77;28.80
72024;BME280;59889;50.700;5.440;2022-08-05T00:09:16;99898.86;;;31.91;28.66
72024;BME280;59889;50.700;5.440;2022-08-05T00:11:42;99904.33;;;32.06;28.75
72024;BME280;59889;50.700;5.440;2022-08-05T00:14:08;99902.86;;;31.68;28.86
72024;BME280;59889;50.700;5.440;2022-08-05T00:16:34;99896.80;;;32.09;28.69
72024;BME280;59889;50.700;5.440;2022-08-05T00:18:59;99897.34;;;32.01;28.76
72024;BME280;59889;50.700;5.440;2022-08-05T00:21:25;99894.63;;;31.99;28.79
72024;BME280;59889;50.700;5.440;2022-08-05T00:23:51;99886.48;;;31.93;28.83
72024;BME280;59889;50.700;5.440;2022-08-05T00:26:17;99882.92;;;31.95;28.82
72024;BME280;59889;50.700;5.440;2022-08-05T00:28:43;99881.79;;;32.00;28.76
72024;BME280;59889;50.700;5.440;2022-08-05T00:31:09;99884.52;;;31.74;28.80
72024;BME280;59889;50.700;5.440;2022-08-05T00:33:34;99882.32;;;32.21;28.79
72024;BME280;59889;50.700;5.440;2022-08-05T00:36:00;99887.69;;;32.02;28.73
72024;BME280;59889;50.700;5.440;2022-08-05T00:38:26;99893.14;;;31.71;28.81
72024;BME280;59889;50.700;5.440;2022-08-05T00:40:55;99897.40;;;31.94;28.80
72024;BME280;59889;50.700;5.440;2022-08-05T00:43:17;99913.66;;;31.93;28.82
72024;BME280;59889;50.700;5.440;2022-08-05T00:45:43;99910.03;;;32.06;28.67
72024;BME280;59889;50.700;5.440;2022-08-05T00:48:10;99886.67;;;31.80;28.67
72024;BME280;59889;50.700;5.440;2022-08-05T00:50:35;99892.55;;;31.72;28.76
72024;BME280;59889;50.700;5.440;2022-08-05T00:53:01;99921.26;;;31.74;28.75
72024;BME280;59889;50.700;5.440;2022-08-05T00:55:27;99946.69;;;31.95;28.77
72024;BME280;59889;50.700;5.440;2022-08-05T00:57:53;99970.12;;;31.96;28.76
72024;BME280;59889;50.700;5.440;2022-08-05T01:00:18;100008.15;;;31.93;28.78
72024;BME280;59889;50.700;5.440;2022-08-05T01:02:44;100041.52;;;31.93;28.81
72024;BME280;59889;50.700;5.440;2022-08-05T01:05:10;100054.42;;;32.00;28.70
72024;BME280;59889;50.700;5.440;2022-08-05T01:07:35;100059.61;;;32.01;28.70
72024;BME280;59889;50.700;5.440;2022-08-05T01:10:02;100059.74;;;31.98;28.73
72024;BME280;59889;50.700;5.440;2022-08-05T01:12:27;100067.94;;;31.91;28.79
72024;BME280;59889;50.700;5.440;2022-08-05T01:14:58;100072.29;;;31.96;28.72
72024;BME280;59889;50.700;5.440;2022-08-05T01:17:24;100075.16;;;31.74;28.72
72024;BME280;59889;50.700;5.440;2022-08-05T01:19:47;100079.76;;;31.91;28.79
72024;BME280;59889;50.700;5.440;2022-08-05T01:22:20;100075.00;;;31.88;28.81
72024;BME280;59889;50.700;5.440;2022-08-05T01:24:49;100060.25;;;31.71;28.73
72024;BME280;59889;50.700;5.440;2022-08-05T01:27:08;100048.75;;;31.91;28.76
72024;BME280;59889;50.700;5.440;2022-08-05T01:29:31;100038.93;;;31.76;28.65
72024;BME280;59889;50.700;5.440;2022-08-05T01:31:59;100009.82;;;31.66;28.75
72024;BME280;59889;50.700;5.440;2022-08-05T01:34:22;99993.83;;;31.60;28.81
72024;BME280;59889;50.700;5.440;2022-08-05T01:36:48;99974.02;;;31.89;28.74
72024;BME280;59889;50.700;5.440;2022-08-05T01:39:12;99953.66;;;31.65;28.73
72024;BME280;59889;50.700;5.440;2022-08-05T01:41:37;99956.72;;;31.87;28.77
72024;BME280;59889;50.700;5.440;2022-08-05T01:44:03;99934.60;;;31.88;28.76
72024;BME280;59889;50.700;5.440;2022-08-05T01:46:30;99898.57;;;31.90;28.73
72024;BME280;59889;50.700;5.440;2022-08-05T01:48:55;99898.83;;;31.92;28.70
72024;BME280;59889;50.700;5.440;2022-08-05T01:51:20;99902.52;;;31.90;28.73
72024;BME280;59889;50.700;5.440;2022-08-05T01:53:48;99882.15;;;31.94;28.68
72024;BME280;59889;50.700;5.440;2022-08-05T01:56:12;99875.04;;;31.86;28.77
72024;BME280;59889;50.700;5.440;2022-08-05T01:58:38;99895.32;;;31.86;28.79
72024;BME280;59889;50.700;5.440;2022-08-05T02:01:04;99905.91;;;31.85;28.79
72024;BME280;59889;50.700;5.440;2022-08-05T02:03:33;99893.28;;;31.95;28.67
72024;BME280;59889;50.700;5.440;2022-08-05T02:05:55;99891.56;;;31.76;28.87
72024;BME280;59889;50.700;5.440;2022-08-05T02:08:21;99904.44;;;31.86;28.77
72024;BME280;59889;50.700;5.440;2022-08-05T02:10:48;99926.48;;;31.88;28.75
72024;BME280;59889;50.700;5.440;2022-08-05T02:13:14;99940.75;;;31.87;28.76
72024;BME280;59889;50.700;5.440;2022-08-05T02:15:42;99954.49;;;31.77;28.86
72024;BME280;59889;50.700;5.440;2022-08-05T02:18:08;99963.37;;;31.89;28.72
72024;BME280;59889;50.700;5.440;2022-08-05T02:20:34;99967.83;;;31.78;28.84
72024;BME280;59889;50.700;5.440;2022-08-05T02:22:58;99975.95;;;31.82;28.79
72024;BME280;59889;50.700;5.440;2022-08-05T02:25:24;99983.37;;;31.82;28.78
72024;BME280;59889;50.700;5.440;2022-08-05T02:27:47;99990.19;;;31.59;28.77
72024;BME280;59889;50.700;5.440;2022-08-05T02:30:13;99998.96;;;31.77;28.83
72024;BME280;59889;50.700;5.440;2022-08-05T02:32:39;100007.63;;;31.83;28.76
72024;BME280;59889;50.700;5.440;2022-08-05T02:35:10;100015.16;;;31.80;28.78
72024;BME280;59889;50.700;5.440;2022-08-05T02:37:31;100017.82;;;31.82;28.75
72024;BME280;59889;50.700;5.440;2022-08-05T02:39:56;100016.41;;;31.81;28.75
72024;BME280;59889;50.700;5.440;2022-08-05T02:42:22;100009.05;;;31.79;28.77
72024;BME280;59889;50.700;5.440;2022-08-05T02:44:49;100000.70;;;31.73;28.83
72024;BME280;59889;50.700;5.440;2022-08-05T02:47:14;99988.65;;;31.71;28.85
72024;BME280;59889;50.700;5.440;2022-08-05T02:49:41;99973.54;;;31.72;28.81
72024;BME280;59889;50.700;5.440;2022-08-05T02:52:08;99964.81;;;31.69;28.84
72024;BME280;59889;50.700;5.440;2022-08-05T02:54:31;99963.02;;;31.75;28.78
72024;BME280;59889;50.700;5.440;2022-08-05T02:56:57;99968.68;;;31.73;28.79
72024;BME280;59889;50.700;5.440;2022-08-05T02:59:23;99971.64;;;31.99;28.76
72024;BME280;59889;50.700;5.440;2022-08-05T03:01:48;99965.17;;;31.74;28.77
72024;BME280;59889;50.700;5.440;2022-08-05T03:04:14;99941.69;;;31.69;28.80
72024;BME280;59889;50.700;5.440;2022-08-05T03:06:40;99915.88;;;31.65;28.85
72024;BME280;59889;50.700;5.440;2022-08-05T03:09:06;99933.14;;;31.69;28.80
72024;BME280;59889;50.700;5.440;2022-08-05T03:11:31;99953.52;;;31.76;28.71
72024;BME280;59889;50.700;5.440;2022-08-05T03:13:57;99944.19;;;31.70;28.78
72024;BME280;59889;50.700;5.440;2022-08-05T03:16:23;99928.77;;;31.88;28.83
72024;BME280;59889;50.700;5.440;2022-08-05T03:18:49;99934.97;;;31.63;28.83
72024;BME280;59889;50.700;5.440;2022-08-05T03:21:15;99941.02;;;31.44;28.79
72024;BME280;59889;50.700;5.440;2022-08-05T03:23:42;99947.49;;;31.93;28.76
72024;BME280;59889;50.700;5.440;2022-08-05T03:26:06;99944.18;;;31.68;28.77
72024;BME280;59889;50.700;5.440;2022-08-05T03:28:33;99931.51;;;31.33;28.87
72024;BME280;59889;50.700;5.440;2022-08-05T03:31:00;99928.23;;;31.61;28.83
72024;BME280;59889;50.700;5.440;2022-08-05T03:33:24;99913.58;;;31.61;28.80
72024;BME280;59889;50.700;5.440;2022-08-05T03:35:49;99892.83;;;31.56;28.85
72024;BME280;59889;50.700;5.440;2022-08-05T03:38:15;99887.61;;;31.35;28.81
72024;BME280;59889;50.700;5.440;2022-08-05T03:40:41;99886.04;;;31.84;28.79
72024;BME280;59889;50.700;5.440;2022-08-05T03:43:07;99875.33;;;31.63;28.78
72024;BME280;59889;50.700;5.440;2022-08-05T03:45:32;99867.96;;;31.61;28.78
72024;BME280;59889;50.700;5.440;2022-08-05T03:47:58;99873.08;;;31.57;28.82
72024;BME280;59889;50.700;5.440;2022-08-05T03:50:25;99887.89;;;31.86;28.78
72024;BME280;59889;50.700;5.440;2022-08-05T03:52:57;99893.97;;;31.58;28.81
72024;BME280;59889;50.700;5.440;2022-08-05T03:55:20;99884.37;;;31.28;28.87
72024;BME280;59889;50.700;5.440;2022-08-05T03:57:43;99881.72;;;31.59;28.79
72024;BME280;59889;50.700;5.440;2022-08-05T04:00:10;99894.30;;;31.51;28.86
72024;BME280;59889;50.700;5.440;2022-08-05T04:02:35;99905.27;;;31.61;28.76
72024;BME280;59889;50.700;5.440;2022-08-05T04:05:00;99911.56;;;31.57;28.79
72024;BME280;59889;50.700;5.440;2022-08-05T04:07:25;99918.29;;;31.48;28.89
72024;BME280;59889;50.700;5.440;2022-08-05T04:09:51;99918.27;;;31.53;28.82
72024;BME280;59889;50.700;5.440;2022-08-05T04:12:17;99919.01;;;31.52;28.82
72024;BME280;59889;50.700;5.440;2022-08-05T04:14:42;99930.50;;;31.41;28.93
72024;BME280;59889;50.700;5.440;2022-08-05T04:17:08;99934.74;;;31.50;28.83
72024;BME280;59889;50.700;5.440;2022-08-05T04:19:40;99933.59;;;31.50;28.83
72024;BME280;59889;50.700;5.440;2022-08-05T04:22:00;99934.95;;;31.46;28.86
72024;BME280;59889;50.700;5.440;2022-08-05T04:24:25;99943.75;;;31.51;28.80
72024;BME280;59889;50.700;5.440;2022-08-05T04:26:51;99952.01;;;31.54;28.77
72024;BME280;59889;50.700;5.440;2022-08-05T04:29:17;99951.93;;;31.40;28.89
72024;BME280;59889;50.700;5.440;2022-08-05T04:31:43;99952.17;;;31.71;28.85
72024;BME280;59889;50.700;5.440;2022-08-05T04:34:09;99957.16;;;31.47;28.87
72024;BME280;59889;50.700;5.440;2022-08-05T04:36:34;99969.68;;;31.74;28.85
72024;BME280;59889;50.700;5.440;2022-08-05T04:39:00;99978.55;;;31.45;28.90
72024;BME280;59889;50.700;5.440;2022-08-05T04:41:26;99971.30;;;31.49;28.81
72024;BME280;59889;50.700;5.440;2022-08-05T04:43:52;99951.71;;;31.42;28.81
72024;BME280;59889;50.700;5.440;2022-08-05T04:46:17;99955.71;;;31.46;28.75
72024;BME280;59889;50.700;5.440;2022-08-05T04:48:43;99956.32;;;31.43;28.80
72024;BME280;59889;50.700;5.440;2022-08-05T04:51:09;99955.45;;;31.63;28.86
72024;BME280;59889;50.700;5.440;2022-08-05T04:53:35;99957.04;;;31.35;28.92
72024;BME280;59889;50.700;5.440;2022-08-05T04:56:01;99961.35;;;31.37;28.90
72024;BME280;59889;50.700;5.440;2022-08-05T04:58:27;99965.93;;;31.56;28.99
72024;BME280;59889;50.700;5.440;2022-08-05T05:00:53;99965.42;;;31.39;28.93
72024;BME280;59889;50.700;5.440;2022-08-05T05:03:18;99959.38;;;31.69;28.87
72024;BME280;59889;50.700;5.440;2022-08-05T05:05:44;99953.80;;;31.34;28.98
72024;BME280;59889;50.700;5.440;2022-08-05T05:08:10;99952.27;;;31.40;28.93
72024;BME280;59889;50.700;5.440;2022-08-05T05:10:38;99947.16;;;31.41;28.90
72024;BME280;59889;50.700;5.440;2022-08-05T05:13:01;99944.47;;;31.44;28.87
72024;BME280;59889;50.700;5.440;2022-08-05T05:15:27;99945.15;;;31.39;28.89
72024;BME280;59889;50.700;5.440;2022-08-05T05:17:53;99952.64;;;31.35;28.95
72024;BME280;59889;50.700;5.440;2022-08-05T05:20:19;99953.21;;;31.38;28.91
72024;BME280;59889;50.700;5.440;2022-08-05T05:22:45;99954.72;;;31.13;28.90
72024;BME280;59889;50.700;5.440;2022-08-05T05:25:11;99952.90;;;31.60;28.92
72024;BME280;59889;50.700;5.440;2022-08-05T05:27:36;99950.88;;;31.33;28.95
72024;BME280;59889;50.700;5.440;2022-08-05T05:30:03;99951.83;;;31.78;28.97
72024;BME280;59889;50.700;5.440;2022-08-05T05:32:28;99952.37;;;31.29;28.98
72024;BME280;59889;50.700;5.440;2022-08-05T05:34:53;99958.99;;;31.52;28.98
72024;BME280;59889;50.700;5.440;2022-08-05T05:37:19;99959.41;;;31.77;28.95
72024;BME280;59889;50.700;5.440;2022-08-05T05:39:45;99962.35;;;31.35;28.89
72024;BME280;59889;50.700;5.440;2022-08-05T05:42:11;99964.17;;;31.31;28.91
72024;BME280;59889;50.700;5.440;2022-08-05T05:44:37;99968.60;;;31.50;28.97
72024;BME280;59889;50.700;5.440;2022-08-05T05:47:03;99968.97;;;31.45;29.02
72024;BME280;59889;50.700;5.440;2022-08-05T05:49:28;99976.46;;;31.48;28.98
72024;BME280;59889;50.700;5.440;2022-08-05T05:51:54;99980.57;;;31.05;28.92
72024;BME280;59889;50.700;5.440;2022-08-05T05:54:20;99981.53;;;31.52;28.92
72024;BME280;59889;50.700;5.440;2022-08-05T05:56:46;99986.99;;;31.29;28.91
72024;BME280;59889;50.700;5.440;2022-08-05T05:59:11;99988.58;;;31.71;28.96
72024;BME280;59889;50.700;5.440;2022-08-05T06:01:39;99990.44;;;31.26;28.92
72024;BME280;59889;50.700;5.440;2022-08-05T06:04:04;99993.61;;;31.47;28.94
72024;BME280;59889;50.700;5.440;2022-08-05T06:06:29;99997.29;;;31.46;28.96
72024;BME280;59889;50.700;5.440;2022-08-05T06:08:55;100001.61;;;31.24;28.91
72024;BME280;59889;50.700;5.440;2022-08-05T06:11:20;100005.43;;;31.50;28.88
72024;BME280;59889;50.700;5.440;2022-08-05T06:13:46;100008.75;;;31.30;28.84
72024;BME280;59889;50.700;5.440;2022-08-05T06:16:12;100013.96;;;31.24;28.91
72024;BME280;59889;50.700;5.440;2022-08-05T06:18:38;100021.56;;;31.20;28.93
72024;BME280;59889;50.700;5.440;2022-08-05T06:21:04;100017.68;;;31.24;28.90
72024;BME280;59889;50.700;5.440;2022-08-05T06:23:29;100019.77;;;31.42;28.94
72024;BME280;59889;50.700;5.440;2022-08-05T06:25:55;100021.84;;;31.17;28.94
72024;BME280;59889;50.700;5.440;2022-08-05T06:28:21;100029.35;;;31.49;28.85
72024;BME280;59889;50.700;5.440;2022-08-05T06:30:47;100029.39;;;31.11;28.98
72024;BME280;59889;50.700;5.440;2022-08-05T06:33:12;100028.09;;;31.42;28.90
72024;BME280;59889;50.700;5.440;2022-08-05T06:35:38;100030.52;;;31.12;28.96
72024;BME280;59889;50.700;5.440;2022-08-05T06:38:04;100034.33;;;31.18;28.89
72024;BME280;59889;50.700;5.440;2022-08-05T06:40:30;100039.23;;;31.22;28.85
72024;BME280;59889;50.700;5.440;2022-08-05T06:42:56;100039.93;;;31.20;28.86
72024;BME280;59889;50.700;5.440;2022-08-05T06:45:22;100040.32;;;31.40;28.89
72024;BME280;59889;50.700;5.440;2022-08-05T06:47:47;100045.11;;;31.40;28.89
72024;BME280;59889;50.700;5.440;2022-08-05T06:50:13;100049.30;;;31.39;28.88
72024;BME280;59889;50.700;5.440;2022-08-05T06:52:39;100055.61;;;31.62;28.89
72024;BME280;59889;50.700;5.440;2022-08-05T06:55:06;100061.43;;;31.34;28.93
72024;BME280;59889;50.700;5.440;2022-08-05T06:57:30;100066.53;;;31.10;28.93
72024;BME280;59889;50.700;5.440;2022-08-05T06:59:56;100068.56;;;31.15;28.86
72024;BME280;59889;50.700;5.440;2022-08-05T07:02:22;100073.63;;;31.33;28.90
72024;BME280;59889;50.700;5.440;2022-08-05T07:04:48;100074.88;;;31.38;28.86
72024;BME280;59889;50.700;5.440;2022-08-05T07:07:14;100082.66;;;31.33;28.90
72024;BME280;59889;50.700;5.440;2022-08-05T07:09:39;100085.25;;;31.36;28.87
72024;BME280;59889;50.700;5.440;2022-08-05T07:12:06;100087.03;;;31.42;28.78
72024;BME280;59889;50.700;5.440;2022-08-05T07:14:31;100087.45;;;31.34;28.88
72024;BME280;59889;50.700;5.440;2022-08-05T07:16:57;100088.97;;;31.11;28.85
72024;BME280;59889;50.700;5.440;2022-08-05T07:19:23;100094.88;;;31.36;28.84
72024;BME280;59889;50.700;5.440;2022-08-05T07:21:49;100101.36;;;31.34;28.85
72024;BME280;59889;50.700;5.440;2022-08-05T07:24:14;100107.87;;;31.10;28.86
72024;BME280;59889;50.700;5.440;2022-08-05T07:26:41;100112.62;;;31.28;28.91
72024;BME280;59889;50.700;5.440;2022-08-05T07:29:06;100117.37;;;31.10;28.84
72024;BME280;59889;50.700;5.440;2022-08-05T07:31:32;100120.64;;;31.32;28.85
72024;BME280;59889;50.700;5.440;2022-08-05T07:33:57;100124.14;;;31.29;28.86
72024;BME280;59889;50.700;5.440;2022-08-05T07:36:23;100128.93;;;31.30;28.84
72024;BME280;59889;50.700;5.440;2022-08-05T07:38:49;100133.57;;;31.31;28.84
72024;BME280;59889;50.700;5.440;2022-08-05T07:41:17;100135.75;;;31.28;28.85
72024;BME280;59889;50.700;5.440;2022-08-05T07:43:41;100139.78;;;31.05;28.83
72024;BME280;59889;50.700;5.440;2022-08-05T07:46:06;100142.96;;;30.97;28.91
72024;BME280;59889;50.700;5.440;2022-08-05T07:48:32;100146.29;;;31.24;28.87
72024;BME280;59889;50.700;5.440;2022-08-05T07:50:58;100147.80;;;31.05;28.81
72024;BME280;59889;50.700;5.440;2022-08-05T07:53:24;100155.47;;;31.17;28.91
72024;BME280;59889;50.700;5.440;2022-08-05T07:55:50;100162.58;;;31.15;28.94
72024;BME280;59889;50.700;5.440;2022-08-05T07:58:15;100162.89;;;31.26;28.84
72024;BME280;59889;50.700;5.440;2022-08-05T08:00:42;100164.04;;;31.23;28.84
72024;BME280;59889;50.700;5.440;2022-08-05T08:03:09;100170.91;;;31.21;28.85
72024;BME280;59889;50.700;5.440;2022-08-05T08:05:33;100171.53;;;31.51;28.79
72024;BME280;59889;50.700;5.440;2022-08-05T08:07:59;100173.84;;;31.03;28.78
72024;BME280;59889;50.700;5.440;2022-08-05T08:10:24;100175.84;;;31.29;28.75
72024;BME280;59889;50.700;5.440;2022-08-05T08:12:50;100171.91;;;31.25;28.78
72024;BME280;59889;50.700;5.440;2022-08-05T08:15:16;100171.68;;;31.47;28.81
72024;BME280;59889;50.700;5.440;2022-08-05T08:17:43;100172.60;;;31.23;28.80
72024;BME280;59889;50.700;5.440;2022-08-05T08:20:09;100177.51;;;31.02;28.76
72024;BME280;59889;50.700;5.440;2022-08-05T08:22:33;100181.54;;;31.25;28.76
72024;BME280;59889;50.700;5.440;2022-08-05T08:24:59;100181.03;;;30.93;28.84
72024;BME280;59889;50.700;5.440;2022-08-05T08:27:25;100182.15;;;31.19;28.81
72024;BME280;59889;50.700;5.440;2022-08-05T08:29:51;100184.71;;;31.20;28.79
72024;BME280;59889;50.700;5.440;2022-08-05T08:32:17;100187.94;;;31.51;28.72
72024;BME280;59889;50.700;5.440;2022-08-05T08:34:42;100191.60;;;31.16;28.83
72024;BME280;59889;50.700;5.440;2022-08-05T08:37:08;100193.90;;;31.23;28.75
72024;BME280;59889;50.700;5.440;2022-08-05T08:39:34;100193.80;;;31.48;28.72
72024;BME280;59889;50.700;5.440;2022-08-05T08:42:00;100194.50;;;31.20;28.77
72024;BME280;59889;50.700;5.440;2022-08-05T08:44:29;100198.17;;;30.90;28.82
72024;BME280;59889;50.700;5.440;2022-08-05T08:46:51;100196.76;;;31.24;28.69
72024;BME280;59889;50.700;5.440;2022-08-05T08:49:18;100204.06;;;31.21;28.74
72024;BME280;59889;50.700;5.440;2022-08-05T08:51:47;100207.73;;;31.23;28.71
72024;BME280;59889;50.700;5.440;2022-08-05T08:54:09;100212.48;;;31.48;28.70
72024;BME280;59889;50.700;5.440;2022-08-05T08:56:36;100214.43;;;30.90;28.80
72024;BME280;59889;50.700;5.440;2022-08-05T08:59:00;100220.71;;;31.22;28.69
72024;BME280;59889;50.700;5.440;2022-08-05T09:01:26;100218.69;;;31.18;28.74
72024;BME280;59889;50.700;5.440;2022-08-05T09:03:53;100219.75;;;30.88;28.80
72024;BME280;59889;50.700;5.440;2022-08-05T09:06:18;100225.01;;;31.13;28.80
72024;BME280;59889;50.700;5.440;2022-08-05T09:08:44;100231.42;;;31.43;28.73
72024;BME280;59889;50.700;5.440;2022-08-05T09:11:10;100232.49;;;31.20;28.71
72024;BME280;59889;50.700;5.440;2022-08-05T09:13:35;100239.78;;;31.23;28.68
72024;BME280;59889;50.700;5.440;2022-08-05T09:16:01;100241.56;;;30.99;28.68
72024;BME280;59889;50.700;5.440;2022-08-05T09:18:27;100243.60;;;31.04;28.62
72024;BME280;59889;50.700;5.440;2022-08-05T09:20:53;100245.11;;;31.20;28.71
72024;BME280;59889;50.700;5.440;2022-08-05T09:23:19;100248.00;;;30.93;28.72
72024;BME280;59889;50.700;5.440;2022-08-05T09:25:46;100253.45;;;30.99;28.67
72024;BME280;59889;50.700;5.440;2022-08-05T09:28:12;100260.59;;;31.29;28.60
72024;BME280;59889;50.700;5.440;2022-08-05T09:30:36;100266.17;;;31.25;28.65
72024;BME280;59889;50.700;5.440;2022-08-05T09:33:02;100268.38;;;30.97;28.68
72024;BME280;59889;50.700;5.440;2022-08-05T09:35:27;100273.26;;;31.14;28.73
72024;BME280;59889;50.700;5.440;2022-08-05T09:37:55;100274.80;;;31.19;28.68
72024;BME280;59889;50.700;5.440;2022-08-05T09:40:30;100279.06;;;30.91;28.72
72024;BME280;59889;50.700;5.440;2022-08-05T09:42:45;100284.38;;;31.24;28.63
72024;BME280;59889;50.700;5.440;2022-08-05T09:45:11;100284.58;;;31.17;28.69
72024;BME280;59889;50.700;5.440;2022-08-05T09:47:39;100284.31;;;31.15;28.71
72024;BME280;59889;50.700;5.440;2022-08-05T09:50:03;100290.15;;;31.24;28.61
72024;BME280;59889;50.700;5.440;2022-08-05T09:52:30;100289.44;;;30.94;28.67
72024;BME280;59889;50.700;5.440;2022-08-05T09:54:56;100290.73;;;31.20;28.65
72024;BME280;59889;50.700;5.440;2022-08-05T09:57:31;100296.22;;;31.21;28.65
72024;BME280;59889;50.700;5.440;2022-08-05T09:59:46;100293.64;;;31.24;28.61
72024;BME280;59889;50.700;5.440;2022-08-05T10:02:11;100296.72;;;30.93;28.65
72024;BME280;59889;50.700;5.440;2022-08-05T10:04:37;100297.59;;;31.42;28.65
72024;BME280;59889;50.700;5.440;2022-08-05T10:07:03;100300.76;;;30.94;28.65
72024;BME280;59889;50.700;5.440;2022-08-05T10:09:28;100303.21;;;31.21;28.62
72024;BME280;59889;50.700;5.440;2022-08-05T10:12:08;100303.49;;;31.20;28.62
72024;BME280;59889;50.700;5.440;2022-08-05T10:14:21;100304.63;;;30.97;28.60
72024;BME280;59889;50.700;5.440;2022-08-05T10:16:46;100305.11;;;31.19;28.62
72024;BME280;59889;50.700;5.440;2022-08-05T10:19:12;100303.80;;;31.27;28.52
72024;BME280;59889;50.700;5.440;2022-08-05T10:21:37;100302.44;;;30.97;28.58
72024;BME280;59889;50.700;5.440;2022-08-05T10:24:04;100302.33;;;31.15;28.65
72024;BME280;59889;50.700;5.440;2022-08-05T10:26:29;100300.18;;;31.21;28.59
72024;BME280;59889;50.700;5.440;2022-08-05T10:28:55;100301.35;;;31.21;28.58
72024;BME280;59889;50.700;5.440;2022-08-05T10:31:21;100305.43;;;31.06;28.48
72024;BME280;59889;50.700;5.440;2022-08-05T10:33:47;100305.53;;;31.00;28.53
72024;BME280;59889;50.700;5.440;2022-08-05T10:36:12;100307.60;;;31.31;28.44
72024;BME280;59889;50.700;5.440;2022-08-05T10:38:41;100302.30;;;31.26;28.49
72024;BME280;59889;50.700;5.440;2022-08-05T10:41:10;100305.98;;;31.24;28.49
72024;BME280;59889;50.700;5.440;2022-08-05T10:43:36;100308.91;;;31.29;28.46
72024;BME280;59889;50.700;5.440;2022-08-05T10:45:56;100305.99;;;31.27;28.47
72024;BME280;59889;50.700;5.440;2022-08-05T10:48:28;100304.50;;;31.39;28.35
72024;BME280;59889;50.700;5.440;2022-08-05T10:50:56;100304.64;;;31.31;28.41
72024;BME280;59889;50.700;5.440;2022-08-05T10:58:07;100311.14;;;31.06;28.43
72024;BME280;59889;50.700;5.440;2022-08-05T11:00:30;100310.62;;;31.34;28.38
72024;BME280;59889;50.700;5.440;2022-08-05T11:03:08;100310.52;;;31.33;28.39
72024;BME280;59889;50.700;5.440;2022-08-05T11:05:22;100310.40;;;31.42;28.30
72024;BME280;59889;50.700;5.440;2022-08-05T11:07:55;100312.02;;;31.59;28.36
72024;BME280;59889;50.700;5.440;2022-08-05T11:10:20;100312.67;;;31.18;28.30
72024;BME280;59889;50.700;5.440;2022-08-05T11:12:42;100312.55;;;31.15;28.32
72024;BME280;59889;50.700;5.440;2022-08-05T11:15:07;100307.88;;;31.16;28.31
72024;BME280;59889;50.700;5.440;2022-08-05T11:17:32;100312.55;;;31.39;28.33
72024;BME280;59889;50.700;5.440;2022-08-05T11:19:57;100313.50;;;31.43;28.27
72024;BME280;59889;50.700;5.440;2022-08-05T11:22:39;100313.35;;;31.10;28.36
72024;BME280;59889;50.700;5.440;2022-08-05T11:27:27;100316.01;;;31.27;28.42
72024;BME280;59889;50.700;5.440;2022-08-05T11:29:40;100317.52;;;31.42;28.27
72024;BME280;59889;50.700;5.440;2022-08-05T11:32:22;100319.45;;;31.33;28.35
72024;BME280;59889;50.700;5.440;2022-08-05T11:34:37;100319.83;;;31.18;28.26
72024;BME280;59889;50.700;5.440;2022-08-05T11:36:57;100320.69;;;31.30;28.38
72024;BME280;59889;50.700;5.440;2022-08-05T11:41:51;100329.97;;;31.11;28.33
72024;BME280;59889;50.700;5.440;2022-08-05T11:44:15;100328.18;;;31.36;28.32
72024;BME280;59889;50.700;5.440;2022-08-05T11:46:45;100324.70;;;31.62;28.28
72024;BME280;59889;50.700;5.440;2022-08-05T11:49:10;100326.36;;;31.22;28.20
72024;BME280;59889;50.700;5.440;2022-08-05T11:51:33;100327.94;;;31.37;28.30
72024;BME280;59889;50.700;5.440;2022-08-05T11:53:58;100328.17;;;31.18;28.25
72024;BME280;59889;50.700;5.440;2022-08-05T11:56:24;100327.34;;;31.44;28.23
72024;BME280;59889;50.700;5.440;2022-08-05T11:58:50;100325.89;;;31.29;28.37
72024;BME280;59889;50.700;5.440;2022-08-05T12:01:18;100329.35;;;31.18;28.25
72024;BME280;59889;50.700;5.440;2022-08-05T12:03:43;100329.23;;;31.13;28.30
72024;BME280;59889;50.700;5.440;2022-08-05T12:06:08;100329.18;;;31.32;28.36
72024;BME280;59889;50.700;5.440;2022-08-05T12:08:39;100329.85;;;31.09;28.34
72024;BME280;59889;50.700;5.440;2022-08-05T12:10:59;100338.56;;;31.39;28.29
72024;BME280;59889;50.700;5.440;2022-08-05T12:13:25;100344.91;;;31.34;28.33
72024;BME280;59889;50.700;5.440;2022-08-05T12:15:50;100347.77;;;31.10;28.33
72024;BME280;59889;50.700;5.440;2022-08-05T12:18:17;100353.37;;;31.35;28.33
72024;BME280;59889;50.700;5.440;2022-08-05T12:20:42;100354.10;;;31.33;28.34
72024;BME280;59889;50.700;5.440;2022-08-05T12:23:08;100356.24;;;31.30;28.36
72024;BME280;59889;50.700;5.440;2022-08-05T12:27:59;100359.54;;;31.31;28.35
72024;BME280;59889;50.700;5.440;2022-08-05T12:30:25;100364.40;;;31.51;28.36
72024;BME280;59889;50.700;5.440;2022-08-05T12:32:51;100367.30;;;31.33;28.31
72024;BME280;59889;50.700;5.440;2022-08-05T12:35:17;100369.41;;;31.46;28.42
72024;BME280;59889;50.700;5.440;2022-08-05T12:37:44;100371.62;;;31.16;28.24
72024;BME280;59889;50.700;5.440;2022-08-05T12:40:09;100376.86;;;31.39;28.25
72024;BME280;59889;50.700;5.440;2022-08-05T12:42:34;100376.93;;;31.34;28.30
72024;BME280;59889;50.700;5.440;2022-08-05T12:45:01;100383.19;;;31.65;28.22
72024;BME280;59889;50.700;5.440;2022-08-05T12:47:26;100383.07;;;31.37;28.26
72024;BME280;59889;50.700;5.440;2022-08-05T12:49:51;100384.55;;;31.15;28.24
72024;BME280;59889;50.700;5.440;2022-08-05T12:52:18;100381.63;;;31.38;28.23
72024;BME280;59889;50.700;5.440;2022-08-05T12:54:44;100379.78;;;31.27;28.36
72024;BME280;59889;50.700;5.440;2022-08-05T12:57:10;100386.65;;;31.38;28.25
72024;BME280;59889;50.700;5.440;2022-08-05T12:59:43;100385.46;;;31.39;28.23